createdAt,value
2023-01-04T00:00:54.050Z,0.00
2023-01-04T00:01:53.927Z,0.00
2023-01-04T00:02:54.033Z,0.00
2023-01-04T00:03:54.243Z,0.00
2023-01-04T00:04:57.485Z,0.00
2023-01-04T00:05:53.945Z,0.00
2023-01-04T00:06:53.874Z,0.00
2023-01-04T00:07:54.037Z,0.00
2023-01-04T00:08:53.839Z,0.00
2023-01-04T00:09:53.843Z,0.00
2023-01-04T00:10:53.860Z,0.00
2023-01-04T00:11:53.817Z,0.00
2023-01-04T00:12:53.877Z,0.00
2023-01-04T00:13:53.878Z,0.00
2023-01-04T00:14:53.825Z,0.00
2023-01-04T00:15:53.801Z,0.00
2023-01-04T00:16:53.751Z,0.00
2023-01-04T00:17:53.884Z,0.00
2023-01-04T00:18:53.711Z,0.00
2023-01-04T00:19:53.740Z,0.00
2023-01-04T00:20:53.687Z,0.00
2023-01-04T00:21:53.757Z,0.00
2023-01-04T00:22:53.776Z,0.00
2023-01-04T00:23:53.741Z,0.00
2023-01-04T00:24:53.761Z,0.00
2023-01-04T00:25:53.853Z,0.00
2023-01-04T00:26:53.902Z,0.00
2023-01-04T00:27:53.640Z,0.00
2023-01-04T00:28:54.577Z,0.00
2023-01-04T00:29:53.575Z,0.00
2023-01-04T00:30:53.662Z,0.00
2023-01-04T00:31:53.703Z,0.00
2023-01-04T00:32:57.800Z,0.00
2023-01-04T00:33:53.540Z,0.00
2023-01-04T00:34:53.710Z,0.00
2023-01-04T00:35:53.717Z,0.00
2023-01-04T00:36:53.599Z,0.00
2023-01-04T00:37:53.507Z,0.00
2023-01-04T00:38:53.452Z,0.00
2023-01-04T00:39:53.439Z,0.00
2023-01-04T00:40:53.459Z,0.00
2023-01-04T00:42:01.722Z,0.00
2023-01-04T00:42:54.440Z,0.00
2023-01-04T00:43:53.390Z,0.00
2023-01-04T00:44:53.371Z,0.00
2023-01-04T00:45:53.425Z,0.00
2023-01-04T00:46:53.590Z,0.00
2023-01-04T00:47:54.322Z,0.00
2023-01-04T00:48:58.181Z,0.00
2023-01-04T00:49:54.319Z,0.00
2023-01-04T00:50:53.350Z,0.00
2023-01-04T00:51:53.365Z,0.00
2023-01-04T00:52:53.373Z,0.00
2023-01-04T00:53:53.356Z,0.00
2023-01-04T00:54:53.257Z,0.00
2023-01-04T00:55:53.238Z,0.00
2023-01-04T00:56:53.239Z,0.00
2023-01-04T00:57:53.394Z,0.00
2023-01-04T00:58:53.896Z,0.00
2023-01-04T00:59:53.216Z,0.00
2023-01-04T01:00:53.187Z,0.00
2023-01-04T01:01:53.273Z,0.00
2023-01-04T01:02:53.372Z,0.00
2023-01-04T01:03:53.166Z,0.00
2023-01-04T01:04:53.879Z,0.00
2023-01-04T01:05:53.145Z,0.00
2023-01-04T01:06:53.105Z,0.00
2023-01-04T01:07:53.191Z,0.00
2023-01-04T01:08:53.250Z,0.00
2023-01-04T01:09:53.071Z,0.00
2023-01-04T01:10:53.184Z,0.00
2023-01-04T01:11:53.075Z,0.00
2023-01-04T01:12:53.296Z,0.00
2023-01-04T01:13:53.010Z,0.00
2023-01-04T01:14:58.597Z,0.00
2023-01-04T01:15:54.021Z,0.00
2023-01-04T01:16:56.351Z,0.00
2023-01-04T01:17:53.005Z,0.00
2023-01-04T01:18:52.955Z,0.00
2023-01-04T01:19:52.949Z,0.00
2023-01-04T01:20:52.933Z,0.00
2023-01-04T01:21:52.920Z,0.00
2023-01-04T01:22:53.110Z,0.00
2023-01-04T01:23:52.891Z,0.00
2023-01-04T01:24:53.050Z,0.00
2023-01-04T01:25:52.866Z,0.00
2023-01-04T01:26:52.857Z,0.00
2023-01-04T01:27:52.867Z,0.00
2023-01-04T01:28:53.004Z,0.00
2023-01-04T01:29:52.937Z,0.00
2023-01-04T01:30:52.809Z,0.00
2023-01-04T01:31:52.901Z,0.00
2023-01-04T01:32:52.802Z,0.00
2023-01-04T01:33:52.755Z,0.00
2023-01-04T01:34:52.760Z,0.00
2023-01-04T01:35:52.750Z,0.00
2023-01-04T01:36:52.722Z,0.00
2023-01-04T01:37:52.777Z,0.00
2023-01-04T01:38:52.806Z,0.00
2023-01-04T01:39:53.263Z,0.00
2023-01-04T01:40:52.882Z,0.00
2023-01-04T01:41:52.688Z,0.00
2023-01-04T01:42:52.653Z,0.00
2023-01-04T01:43:52.842Z,0.00
2023-01-04T01:44:52.620Z,0.00
2023-01-04T01:45:52.635Z,0.00
2023-01-04T01:46:52.743Z,0.00
2023-01-04T01:47:52.589Z,0.00
2023-01-04T01:48:52.666Z,0.00
2023-01-04T01:49:52.617Z,0.00
2023-01-04T01:50:52.561Z,0.00
2023-01-04T01:51:52.569Z,0.00
2023-01-04T01:52:52.741Z,0.00
2023-01-04T01:53:53.163Z,0.00
2023-01-04T01:54:52.675Z,0.00
2023-01-04T01:55:52.486Z,0.00
2023-01-04T01:56:52.541Z,0.00
2023-01-04T01:57:52.593Z,0.00
2023-01-04T01:58:52.436Z,0.00
2023-01-04T01:59:52.495Z,0.00
2023-01-04T02:00:52.413Z,0.00
2023-01-04T02:01:52.690Z,0.00
2023-01-04T02:02:52.740Z,0.00
2023-01-04T02:03:52.628Z,0.00
2023-01-04T02:04:52.357Z,0.00
2023-01-04T02:05:52.414Z,0.00
2023-01-04T02:06:52.332Z,0.00
2023-01-04T02:07:52.417Z,0.00
2023-01-04T02:08:52.303Z,0.00
2023-01-04T02:09:52.310Z,0.00
2023-01-04T02:10:52.276Z,0.00
2023-01-04T02:11:52.268Z,0.00
2023-01-04T02:12:52.263Z,0.00
2023-01-04T02:13:52.268Z,0.00
2023-01-04T02:14:52.251Z,0.00
2023-01-04T02:15:52.309Z,0.00
2023-01-04T02:16:52.207Z,0.00
2023-01-04T02:17:52.202Z,0.00
2023-01-04T02:18:52.210Z,0.00
2023-01-04T02:19:52.168Z,0.00
2023-01-04T02:20:52.160Z,0.00
2023-01-04T02:21:52.145Z,0.00
2023-01-04T02:22:52.137Z,0.00
2023-01-04T02:23:52.162Z,0.00
2023-01-04T02:24:52.116Z,0.00
2023-01-04T02:25:52.074Z,0.00
2023-01-04T02:26:52.065Z,0.00
2023-01-04T02:27:52.064Z,0.00
2023-01-04T02:28:52.081Z,0.00
2023-01-04T02:29:52.038Z,0.00
2023-01-04T02:30:52.051Z,0.00
2023-01-04T02:31:52.040Z,0.00
2023-01-04T02:32:52.008Z,0.00
2023-01-04T02:33:52.010Z,0.00
2023-01-04T02:34:58.198Z,0.00
2023-01-04T02:35:52.948Z,0.00
2023-01-04T02:36:51.946Z,0.00
2023-01-04T02:37:51.936Z,0.00
2023-01-04T02:38:52.224Z,0.00
2023-01-04T02:39:51.905Z,0.00
2023-01-04T02:40:52.157Z,0.00
2023-01-04T02:41:51.878Z,0.00
2023-01-04T02:42:51.878Z,0.00
2023-01-04T02:43:51.888Z,0.00
2023-01-04T02:44:51.834Z,0.00
2023-01-04T02:45:51.836Z,0.00
2023-01-04T02:46:51.946Z,0.00
2023-01-04T02:47:51.807Z,0.00
2023-01-04T02:48:51.815Z,0.00
2023-01-04T02:49:51.768Z,0.00
2023-01-04T02:50:51.765Z,0.00
2023-01-04T02:51:51.766Z,0.00
2023-01-04T02:52:51.747Z,0.00
2023-01-04T02:53:51.746Z,0.00
2023-01-04T02:54:51.712Z,0.00
2023-01-04T02:55:51.707Z,0.00
2023-01-04T02:56:51.698Z,0.00
2023-01-04T02:57:51.678Z,0.00
2023-01-04T02:58:51.697Z,0.00
2023-01-04T02:59:51.647Z,0.00
2023-01-04T03:00:51.678Z,0.00
2023-01-04T03:01:51.777Z,0.00
2023-01-04T03:02:51.745Z,0.00
2023-01-04T03:03:51.713Z,0.00
2023-01-04T03:04:51.583Z,0.00
2023-01-04T03:05:51.584Z,0.00
2023-01-04T03:06:51.612Z,0.00
2023-01-04T03:07:51.551Z,0.00
2023-01-04T03:08:51.552Z,0.00
2023-01-04T03:09:51.534Z,0.00
2023-01-04T03:10:51.566Z,0.00
2023-01-04T03:11:51.496Z,0.00
2023-01-04T03:12:51.482Z,0.00
2023-01-04T03:13:51.486Z,0.00
2023-01-04T03:14:51.468Z,0.00
2023-01-04T03:15:51.546Z,0.00
2023-01-04T03:16:51.431Z,0.00
2023-01-04T03:17:52.172Z,0.00
2023-01-04T03:18:51.445Z,0.00
2023-01-04T03:19:51.381Z,0.00
2023-01-04T03:20:51.388Z,0.00
2023-01-04T03:21:51.360Z,0.00
2023-01-04T03:22:51.374Z,0.00
2023-01-04T03:23:51.370Z,0.00
2023-01-04T03:24:51.334Z,0.00
2023-01-04T03:25:51.319Z,0.00
2023-01-04T03:26:51.300Z,0.00
2023-01-04T03:27:51.287Z,0.00
2023-01-04T03:28:51.305Z,0.00
2023-01-04T03:29:51.260Z,0.00
2023-01-04T03:30:51.256Z,0.00
2023-01-04T03:31:51.301Z,0.00
2023-01-04T03:32:51.231Z,0.00
2023-01-04T03:33:51.242Z,0.00
2023-01-04T03:34:51.200Z,0.00
2023-01-04T03:35:51.183Z,0.00
2023-01-04T03:36:51.167Z,0.00
2023-01-04T03:37:51.158Z,0.00
2023-01-04T03:38:51.178Z,0.00
2023-01-04T03:39:51.121Z,0.00
2023-01-04T03:40:52.074Z,0.00
2023-01-04T03:41:51.115Z,0.00
2023-01-04T03:42:51.098Z,0.00
2023-01-04T03:43:51.100Z,0.00
2023-01-04T03:44:51.074Z,0.00
2023-01-04T03:45:51.091Z,0.00
2023-01-04T03:46:51.187Z,0.00
2023-01-04T03:47:51.030Z,0.00
2023-01-04T03:48:51.046Z,0.00
2023-01-04T03:49:50.998Z,0.00
2023-01-04T03:50:50.988Z,0.00
2023-01-04T03:51:50.983Z,0.00
2023-01-04T03:52:50.968Z,0.00
2023-01-04T03:53:50.993Z,0.00
2023-01-04T03:54:50.932Z,0.00
2023-01-04T03:55:50.925Z,0.00
2023-01-04T03:56:50.916Z,0.00
2023-01-04T03:57:50.900Z,0.00
2023-01-04T03:58:50.910Z,0.00
2023-01-04T03:59:50.907Z,0.00
2023-01-04T04:00:50.968Z,0.00
2023-01-04T04:01:50.989Z,0.00
2023-01-04T04:02:50.900Z,0.00
2023-01-04T04:03:50.906Z,0.00
2023-01-04T04:04:50.818Z,0.00
2023-01-04T04:05:50.800Z,0.00
2023-01-04T04:06:50.781Z,0.00
2023-01-04T04:07:50.781Z,0.00
2023-01-04T04:08:50.787Z,0.00
2023-01-04T04:09:50.756Z,0.00
2023-01-04T04:10:50.731Z,0.00
2023-01-04T04:11:50.738Z,0.00
2023-01-04T04:12:50.709Z,0.00
2023-01-04T04:13:50.738Z,0.00
2023-01-04T04:14:50.691Z,0.00
2023-01-04T04:15:50.679Z,0.00
2023-01-04T04:16:50.763Z,0.00
2023-01-04T04:17:50.657Z,0.00
2023-01-04T04:18:50.662Z,0.00
2023-01-04T04:19:50.613Z,0.00
2023-01-04T04:20:50.607Z,0.00
2023-01-04T04:21:50.603Z,0.00
2023-01-04T04:22:50.575Z,0.00
2023-01-04T04:23:50.596Z,0.00
2023-01-04T04:24:50.553Z,0.00
2023-01-04T04:25:50.537Z,0.00
2023-01-04T04:26:50.515Z,0.00
2023-01-04T04:27:50.522Z,0.00
2023-01-04T04:28:50.531Z,0.00
2023-01-04T04:29:50.481Z,0.00
2023-01-04T04:30:50.464Z,0.00
2023-01-04T04:31:50.482Z,0.00
2023-01-04T04:32:50.440Z,0.00
2023-01-04T04:33:50.471Z,0.00
2023-01-04T04:34:50.416Z,0.00
2023-01-04T04:35:50.406Z,0.00
2023-01-04T04:36:50.401Z,0.00
2023-01-04T04:37:51.153Z,0.00
2023-01-04T04:38:50.462Z,0.00
2023-01-04T04:39:50.374Z,0.00
2023-01-04T04:40:50.341Z,0.00
2023-01-04T04:41:50.352Z,0.00
2023-01-04T04:42:50.304Z,0.00
2023-01-04T04:43:50.320Z,0.00
2023-01-04T04:44:50.300Z,0.00
2023-01-04T04:45:50.323Z,0.00
2023-01-04T04:46:50.259Z,0.00
2023-01-04T04:47:50.263Z,0.00
2023-01-04T04:48:50.274Z,0.00
2023-01-04T04:49:50.223Z,0.00
2023-01-04T04:50:50.213Z,0.00
2023-01-04T04:51:50.204Z,0.00
2023-01-04T04:52:55.731Z,0.00
2023-01-04T04:53:51.204Z,0.00
2023-01-04T04:54:50.171Z,0.00
2023-01-04T04:55:50.143Z,0.00
2023-01-04T04:56:50.143Z,0.00
2023-01-04T04:57:50.117Z,0.00
2023-01-04T04:58:50.132Z,0.00
2023-01-04T04:59:50.095Z,0.00
2023-01-04T05:00:50.099Z,0.00
2023-01-04T05:01:50.163Z,0.00
2023-01-04T05:02:50.205Z,0.00
2023-01-04T05:03:50.074Z,0.00
2023-01-04T05:04:50.021Z,0.00
2023-01-04T05:05:50.016Z,0.00
2023-01-04T05:06:50.025Z,0.00
2023-01-04T05:07:49.999Z,0.00
2023-01-04T05:08:50.017Z,0.00
2023-01-04T05:09:49.962Z,0.00
2023-01-04T05:10:50.530Z,0.00
2023-01-04T05:11:49.955Z,0.00
2023-01-04T05:12:55.810Z,0.00
2023-01-04T05:13:50.943Z,0.00
2023-01-04T05:14:49.898Z,0.00
2023-01-04T05:15:49.909Z,0.00
2023-01-04T05:16:49.992Z,0.00
2023-01-04T05:17:49.860Z,0.00
2023-01-04T05:18:49.841Z,0.00
2023-01-04T05:19:49.870Z,0.00
2023-01-04T05:20:49.818Z,0.00
2023-01-04T05:21:49.807Z,0.00
2023-01-04T05:22:49.792Z,0.00
2023-01-04T05:23:49.781Z,0.00
2023-01-04T05:24:49.810Z,0.00
2023-01-04T05:25:49.768Z,0.00
2023-01-04T05:26:49.797Z,0.00
2023-01-04T05:27:49.726Z,0.00
2023-01-04T05:28:53.674Z,0.00
2023-01-04T05:29:49.731Z,0.00
2023-01-04T05:30:49.690Z,0.00
2023-01-04T05:31:49.753Z,0.00
2023-01-04T05:32:49.684Z,0.00
2023-01-04T05:33:49.667Z,0.00
2023-01-04T05:34:49.670Z,0.00
2023-01-04T05:35:49.631Z,0.00
2023-01-04T05:36:49.623Z,0.00
2023-01-04T05:37:49.622Z,0.00
2023-01-04T05:38:49.579Z,0.00
2023-01-04T05:39:49.600Z,0.00
2023-01-04T05:40:49.579Z,0.00
2023-01-04T05:41:50.998Z,0.00
2023-01-04T05:42:49.528Z,0.00
2023-01-04T05:43:49.529Z,0.00
2023-01-04T05:44:49.537Z,0.00
2023-01-04T05:45:49.564Z,0.00
2023-01-04T05:46:49.489Z,0.00
2023-01-04T05:47:49.482Z,0.00
2023-01-04T05:48:49.456Z,0.00
2023-01-04T05:49:49.471Z,0.00
2023-01-04T05:50:49.430Z,0.00
2023-01-04T05:51:49.441Z,0.00
2023-01-04T05:52:49.427Z,0.00
2023-01-04T05:53:49.408Z,0.00
2023-01-04T05:54:49.441Z,0.00
2023-01-04T05:55:49.367Z,0.00
2023-01-04T05:56:49.357Z,0.00
2023-01-04T05:57:49.345Z,0.00
2023-01-04T05:58:49.316Z,0.00
2023-01-04T05:59:49.377Z,0.00
2023-01-04T06:00:49.307Z,0.00
2023-01-04T06:01:49.359Z,0.00
2023-01-04T06:02:49.410Z,0.00
2023-01-04T06:03:49.388Z,0.00
2023-01-04T06:04:54.695Z,0.00
2023-01-04T06:05:50.251Z,0.00
2023-01-04T06:06:49.226Z,0.00
2023-01-04T06:07:49.212Z,0.00
2023-01-04T06:08:49.197Z,0.00
2023-01-04T06:09:49.225Z,0.00
2023-01-04T06:10:49.165Z,0.00
2023-01-04T06:11:49.167Z,0.00
2023-01-04T06:12:49.302Z,0.00
2023-01-04T06:13:49.126Z,0.00
2023-01-04T06:14:49.144Z,0.00
2023-01-04T06:15:49.115Z,0.00
2023-01-04T06:16:49.146Z,0.00
2023-01-04T06:17:49.086Z,0.00
2023-01-04T06:18:49.074Z,0.00
2023-01-04T06:19:49.085Z,0.00
2023-01-04T06:20:49.034Z,0.00
2023-01-04T06:21:49.038Z,0.00
2023-01-04T06:22:49.007Z,0.00
2023-01-04T06:23:49.008Z,0.00
2023-01-04T06:24:49.024Z,0.00
2023-01-04T06:25:48.973Z,0.00
2023-01-04T06:26:48.964Z,0.00
2023-01-04T06:27:48.952Z,0.00
2023-01-04T06:28:48.931Z,0.00
2023-01-04T06:29:48.953Z,0.00
2023-01-04T06:30:48.940Z,0.00
2023-01-04T06:31:48.903Z,0.00
2023-01-04T06:32:48.882Z,0.00
2023-01-04T06:33:48.883Z,0.00
2023-01-04T06:34:48.907Z,0.00
2023-01-04T06:35:48.858Z,0.00
2023-01-04T06:36:48.837Z,0.00
2023-01-04T06:37:48.824Z,0.00
2023-01-04T06:38:48.815Z,0.00
2023-01-04T06:39:48.833Z,0.00
2023-01-04T06:40:48.774Z,0.00
2023-01-04T06:41:48.772Z,0.00
2023-01-04T06:42:48.750Z,0.00
2023-01-04T06:43:48.785Z,0.00
2023-01-04T06:44:48.754Z,0.00
2023-01-04T06:45:48.751Z,0.00
2023-01-04T06:46:48.719Z,0.00
2023-01-04T06:47:48.692Z,0.00
2023-01-04T06:48:48.672Z,0.00
2023-01-04T06:49:48.708Z,0.00
2023-01-04T06:50:48.650Z,0.00
2023-01-04T06:51:52.925Z,0.00
2023-01-04T06:52:48.620Z,0.00
2023-01-04T06:53:48.612Z,0.00
2023-01-04T06:54:48.667Z,0.00
2023-01-04T06:55:48.582Z,0.00
2023-01-04T06:56:48.609Z,0.00
2023-01-04T06:57:48.585Z,0.00
2023-01-04T06:58:48.562Z,0.00
2023-01-04T06:59:48.580Z,0.00
2023-01-04T07:00:48.527Z,0.00
2023-01-04T07:01:48.620Z,0.00
2023-01-04T07:03:13.881Z,0.00
2023-01-04T07:03:49.483Z,0.00
2023-01-04T07:04:48.567Z,0.00
2023-01-04T07:05:48.421Z,0.00
2023-01-04T07:06:48.578Z,0.00
2023-01-04T07:07:48.391Z,0.00
2023-01-04T07:08:48.360Z,0.00
2023-01-04T07:09:49.201Z,0.00
2023-01-04T07:10:48.550Z,0.00
2023-01-04T07:11:49.048Z,0.00
2023-01-04T07:12:48.359Z,0.00
2023-01-04T07:13:48.433Z,0.00
2023-01-04T07:14:48.362Z,0.00
2023-01-04T07:15:48.313Z,0.00
2023-01-04T07:16:48.389Z,0.00
2023-01-04T07:17:48.351Z,0.00
2023-01-04T07:18:48.274Z,0.00
2023-01-04T07:19:48.371Z,0.00
2023-01-04T07:20:48.223Z,0.00
2023-01-04T07:21:48.192Z,0.00
2023-01-04T07:22:48.208Z,0.00
2023-01-04T07:23:48.172Z,0.00
2023-01-04T07:24:48.180Z,0.00
2023-01-04T07:25:48.146Z,0.00
2023-01-04T07:26:48.171Z,0.00
2023-01-04T07:27:48.120Z,0.00
2023-01-04T07:28:48.104Z,0.00
2023-01-04T07:29:48.136Z,0.00
2023-01-04T07:30:48.102Z,0.00
2023-01-04T07:31:48.091Z,0.00
2023-01-04T07:32:48.050Z,0.00
2023-01-04T07:33:48.262Z,0.00
2023-01-04T07:34:48.072Z,0.00
2023-01-04T07:35:48.181Z,0.00
2023-01-04T07:36:48.218Z,0.00
2023-01-04T07:37:52.181Z,0.00
2023-01-04T07:38:49.078Z,0.00
2023-01-04T07:39:47.987Z,0.00
2023-01-04T07:40:55.867Z,0.00
2023-01-04T07:41:47.984Z,0.00
2023-01-04T07:42:47.917Z,0.00
2023-01-04T07:43:47.960Z,0.00
2023-01-04T07:44:47.934Z,0.00
2023-01-04T07:45:48.148Z,0.00
2023-01-04T07:46:48.109Z,0.00
2023-01-04T07:47:48.012Z,0.00
2023-01-04T07:48:47.849Z,0.00
2023-01-04T07:49:47.857Z,0.00
2023-01-04T07:50:47.863Z,0.00
2023-01-04T07:51:47.941Z,0.00
2023-01-04T07:52:47.859Z,0.00
2023-01-04T07:53:47.979Z,0.00
2023-01-04T07:54:47.869Z,0.00
2023-01-04T07:55:47.758Z,0.00
2023-01-04T07:56:47.851Z,0.00
2023-01-04T07:57:47.926Z,0.00
2023-01-04T07:58:47.987Z,0.00
2023-01-04T07:59:47.749Z,5.62
2023-01-04T08:00:47.696Z,0.00
2023-01-04T08:01:47.913Z,5.62
2023-01-04T08:02:47.851Z,5.62
2023-01-04T08:03:47.847Z,5.62
2023-01-04T08:04:47.893Z,5.62
2023-01-04T08:05:47.659Z,5.62
2023-01-04T08:06:47.706Z,5.62
2023-01-04T08:07:47.596Z,5.62
2023-01-04T08:08:47.660Z,5.62
2023-01-04T08:09:47.596Z,5.62
2023-01-04T08:10:47.658Z,5.62
2023-01-04T08:11:47.546Z,5.62
2023-01-04T08:12:47.541Z,5.62
2023-01-04T08:13:47.536Z,5.62
2023-01-04T08:14:47.558Z,5.62
2023-01-04T08:15:47.526Z,5.62
2023-01-04T08:16:47.729Z,5.62
2023-01-04T08:17:47.473Z,5.62
2023-01-04T08:18:47.472Z,5.62
2023-01-04T08:19:47.815Z,5.62
2023-01-04T08:20:47.441Z,5.62
2023-01-04T08:21:47.570Z,5.62
2023-01-04T08:22:47.583Z,5.62
2023-01-04T08:23:47.506Z,5.62
2023-01-04T08:24:47.428Z,5.62
2023-01-04T08:25:47.361Z,5.62
2023-01-04T08:26:47.509Z,5.62
2023-01-04T08:27:47.404Z,5.62
2023-01-04T08:28:47.413Z,5.62
2023-01-04T08:29:47.408Z,5.62
2023-01-04T08:30:47.334Z,5.62
2023-01-04T08:31:47.338Z,5.62
2023-01-04T08:32:47.478Z,5.62
2023-01-04T08:33:47.288Z,5.62
2023-01-04T08:34:47.333Z,0.00
2023-01-04T08:35:47.240Z,0.00
2023-01-04T08:36:47.241Z,0.00
2023-01-04T08:37:47.224Z,0.00
2023-01-04T08:38:59.464Z,5.62
2023-01-04T08:39:49.619Z,5.62
2023-01-04T08:40:59.803Z,11.25
2023-01-04T08:41:58.243Z,11.25
2023-01-04T08:42:48.143Z,5.62
2023-01-04T08:43:47.132Z,5.62
2023-01-04T08:44:47.150Z,5.62
2023-01-04T08:45:47.136Z,5.62
2023-01-04T08:46:47.148Z,5.62
2023-01-04T08:47:47.104Z,11.25
2023-01-04T08:48:47.073Z,11.25
2023-01-04T08:49:47.052Z,11.25
2023-01-04T08:50:47.101Z,11.25
2023-01-04T08:51:47.056Z,16.88
2023-01-04T08:52:47.022Z,16.88
2023-01-04T08:53:47.019Z,22.50
2023-01-04T08:54:46.997Z,22.50
2023-01-04T08:55:47.002Z,22.50
2023-01-04T08:56:46.967Z,22.50
2023-01-04T08:57:46.972Z,16.88
2023-01-04T08:58:46.971Z,22.50
2023-01-04T08:59:46.932Z,22.50
2023-01-04T09:00:46.948Z,28.12
2023-01-04T09:01:47.037Z,28.12
2023-01-04T09:02:46.964Z,28.12
2023-01-04T09:03:46.876Z,28.12
2023-01-04T09:04:46.924Z,28.12
2023-01-04T09:05:46.873Z,28.12
2023-01-04T09:06:46.856Z,28.12
2023-01-04T09:07:46.832Z,28.12
2023-01-04T09:08:47.585Z,28.12
2023-01-04T09:09:46.808Z,28.12
2023-01-04T09:10:46.838Z,22.50
2023-01-04T09:11:47.577Z,28.12
2023-01-04T09:12:46.828Z,28.12
2023-01-04T09:13:46.753Z,28.12
2023-01-04T09:14:46.742Z,22.50
2023-01-04T09:15:46.806Z,16.88
2023-01-04T09:16:46.746Z,16.88
2023-01-04T09:18:20.453Z,22.50
2023-01-04T09:18:47.973Z,22.50
2023-01-04T09:19:46.661Z,28.12
2023-01-04T09:20:46.691Z,28.12
2023-01-04T09:21:46.782Z,28.12
2023-01-04T09:22:46.634Z,22.50
2023-01-04T09:23:46.672Z,22.50
2023-01-04T09:24:46.606Z,16.88
2023-01-04T09:25:46.622Z,22.50
2023-01-04T09:26:46.601Z,22.50
2023-01-04T09:27:46.557Z,28.12
2023-01-04T09:28:46.551Z,33.75
2023-01-04T09:29:46.540Z,33.75
2023-01-04T09:30:46.608Z,33.75
2023-01-04T09:31:46.572Z,33.75
2023-01-04T09:32:46.505Z,33.75
2023-01-04T09:34:47.474Z,28.12
2023-01-04T09:35:46.566Z,28.12
2023-01-04T09:36:46.454Z,28.12
2023-01-04T09:37:46.441Z,22.50
2023-01-04T09:38:46.420Z,22.50
2023-01-04T09:39:46.410Z,16.88
2023-01-04T09:40:46.429Z,22.50
2023-01-04T09:41:46.378Z,22.50
2023-01-04T09:42:46.372Z,16.88
2023-01-04T09:43:46.350Z,16.88
2023-01-04T09:45:47.370Z,11.25
2023-01-04T09:46:46.370Z,16.88
2023-01-04T09:47:46.305Z,16.88
2023-01-04T09:48:46.304Z,11.25
2023-01-04T09:49:46.674Z,5.62
2023-01-04T09:50:46.309Z,5.62
2023-01-04T09:51:46.251Z,5.62
2023-01-04T09:52:46.259Z,5.62
2023-01-04T09:53:46.230Z,5.62
2023-01-04T09:54:46.226Z,5.62
2023-01-04T09:55:46.229Z,5.62
2023-01-04T09:56:46.242Z,5.62
2023-01-04T09:57:46.183Z,11.25
2023-01-04T09:58:46.257Z,11.25
2023-01-04T09:59:46.172Z,5.62
2023-01-04T10:00:46.210Z,5.62
2023-01-04T10:01:46.273Z,11.25
2023-01-04T10:02:46.239Z,11.25
2023-01-04T10:03:46.227Z,16.88
2023-01-04T10:04:46.403Z,16.88
2023-01-04T10:05:46.190Z,16.88
2023-01-04T10:06:46.119Z,16.88
2023-01-04T10:07:46.049Z,16.88
2023-01-04T10:08:46.037Z,22.50
2023-01-04T10:09:46.016Z,28.12
2023-01-04T10:10:46.051Z,39.38
2023-01-04T10:11:46.008Z,45.00
2023-01-04T10:12:45.990Z,45.00
2023-01-04T10:13:45.982Z,45.00
2023-01-04T10:14:45.959Z,56.25
2023-01-04T10:15:45.984Z,56.25
2023-01-04T10:21:46.938Z,45.00
2023-01-04T10:22:45.879Z,39.38
2023-01-04T10:23:45.922Z,33.75
2023-01-04T10:24:45.839Z,28.12
2023-01-04T10:25:45.836Z,22.50
2023-01-04T10:26:45.800Z,16.88
2023-01-04T10:27:45.781Z,16.88
2023-01-04T10:28:45.776Z,16.88
2023-01-04T10:29:45.762Z,11.25
2023-01-04T10:30:45.787Z,11.25
2023-01-04T10:31:45.784Z,11.25
2023-01-04T10:32:45.724Z,5.62
2023-01-04T10:33:45.708Z,5.62
2023-01-04T10:34:45.710Z,5.62
2023-01-04T10:35:45.757Z,5.62
2023-01-04T10:36:45.666Z,5.62
2023-01-04T10:37:45.647Z,11.25
2023-01-04T10:38:45.657Z,11.25
2023-01-04T10:39:45.627Z,11.25
2023-01-04T10:40:45.647Z,11.25
2023-01-04T10:41:45.595Z,11.25
2023-01-04T10:42:45.590Z,11.25
2023-01-04T10:44:10.073Z,11.25
2023-01-04T10:44:46.616Z,16.88
2023-01-04T10:45:45.566Z,16.88
2023-01-04T10:46:45.589Z,22.50
2023-01-04T10:47:45.516Z,22.50
2023-01-04T10:48:45.507Z,28.12
2023-01-04T10:49:45.499Z,28.12
2023-01-04T10:50:45.540Z,28.12
2023-01-04T10:51:45.470Z,28.12
2023-01-04T10:52:45.455Z,28.12
2023-01-04T10:53:45.450Z,33.75
2023-01-04T10:54:45.433Z,45.00
2023-01-04T10:56:24.302Z,39.38
2023-01-04T10:56:46.414Z,39.38
2023-01-04T10:57:45.417Z,28.12
2023-01-04T10:58:45.376Z,28.12
2023-01-04T10:59:45.369Z,28.12
2023-01-04T11:00:46.389Z,22.50
2023-01-04T11:01:45.479Z,28.12
2023-01-04T11:02:45.515Z,22.50
2023-01-04T11:03:45.379Z,28.12
2023-01-04T11:04:45.313Z,28.12
2023-01-04T11:05:45.468Z,28.12
2023-01-04T11:06:45.501Z,22.50
2023-01-04T11:07:45.275Z,16.88
2023-01-04T11:08:45.262Z,16.88
2023-01-04T11:09:45.259Z,16.88
2023-01-04T11:10:45.253Z,16.88
2023-01-04T11:11:45.293Z,16.88
2023-01-04T11:12:45.205Z,16.88
2023-01-04T11:13:45.186Z,16.88
2023-01-04T11:14:45.270Z,22.50
2023-01-04T11:15:45.185Z,28.12
2023-01-04T11:16:45.228Z,33.75
2023-01-04T11:17:45.128Z,39.38
2023-01-04T11:18:45.186Z,45.00
2023-01-04T11:19:45.203Z,45.00
2023-01-04T11:20:45.172Z,45.00
2023-01-04T11:21:45.081Z,45.00
2023-01-04T11:22:45.216Z,33.75
2023-01-04T11:23:45.079Z,39.38
2023-01-04T11:25:00.637Z,45.00
2023-01-04T11:25:50.353Z,45.00
2023-01-04T11:26:46.143Z,39.38
2023-01-04T11:27:45.032Z,39.38
2023-01-04T11:28:44.983Z,50.62
2023-01-04T11:29:45.130Z,50.62
2023-01-04T11:30:45.004Z,50.62
2023-01-04T11:31:45.032Z,56.25
2023-01-04T11:32:45.269Z,61.88
2023-01-04T11:33:45.024Z,61.88
2023-01-04T11:34:44.913Z,50.62
2023-01-04T11:35:44.906Z,50.62
2023-01-04T11:36:45.041Z,50.62
2023-01-04T11:37:44.893Z,50.62
2023-01-04T11:38:45.033Z,39.38
2023-01-04T11:39:44.985Z,33.75
2023-01-04T11:40:44.837Z,39.38
2023-01-04T11:41:44.853Z,39.38
2023-01-04T11:42:44.813Z,39.38
2023-01-04T11:43:44.799Z,33.75
2023-01-04T11:44:44.784Z,33.75
2023-01-04T11:45:44.829Z,33.75
2023-01-04T11:46:44.772Z,33.75
2023-01-04T11:47:44.824Z,33.75
2023-01-04T11:48:44.851Z,33.75
2023-01-04T11:49:44.840Z,28.12
2023-01-04T11:50:46.515Z,28.12
2023-01-04T11:51:44.748Z,22.50
2023-01-04T11:52:46.532Z,28.12
2023-01-04T11:53:45.236Z,33.75
2023-01-04T11:54:44.653Z,33.75
2023-01-04T11:55:44.648Z,33.75
2023-01-04T11:56:45.395Z,33.75
2023-01-04T11:57:44.885Z,33.75
2023-01-04T11:58:44.696Z,45.00
2023-01-04T11:59:44.945Z,50.62
2023-01-04T12:00:45.223Z,50.62
2023-01-04T12:01:44.648Z,45.00
2023-01-04T12:03:01.153Z,45.00
2023-01-04T12:03:45.696Z,50.62
2023-01-04T12:04:48.761Z,50.62
2023-01-04T12:05:45.315Z,45.00
2023-01-04T12:06:48.019Z,45.00
2023-01-04T12:07:45.211Z,50.62
2023-01-04T12:08:44.499Z,56.25
2023-01-04T12:09:44.646Z,56.25
2023-01-04T12:10:44.620Z,56.25
2023-01-04T12:11:46.152Z,61.88
2023-01-04T12:12:44.663Z,67.50
2023-01-04T12:13:44.564Z,61.88
2023-01-04T12:14:44.402Z,56.25
2023-01-04T12:15:45.281Z,50.62
2023-01-04T12:16:44.423Z,50.62
2023-01-04T12:17:44.674Z,50.62
2023-01-04T12:18:45.515Z,56.25
2023-01-04T12:19:44.469Z,50.62
2023-01-04T12:20:44.469Z,50.62
2023-01-04T12:21:44.385Z,45.00
2023-01-04T12:22:44.344Z,45.00
2023-01-04T12:23:44.386Z,45.00
2023-01-04T12:24:52.822Z,45.00
2023-01-04T12:25:45.377Z,39.38
2023-01-04T12:26:44.375Z,33.75
2023-01-04T12:27:44.292Z,33.75
2023-01-04T12:28:44.824Z,33.75
2023-01-04T12:29:45.153Z,33.75
2023-01-04T12:30:44.418Z,39.38
2023-01-04T12:31:44.403Z,45.00
2023-01-04T12:32:44.320Z,45.00
2023-01-04T12:33:45.812Z,56.25
2023-01-04T12:34:44.292Z,50.62
2023-01-04T12:35:44.324Z,45.00
2023-01-04T12:36:44.465Z,39.38
2023-01-04T12:37:44.093Z,39.38
2023-01-04T12:38:44.978Z,33.75
2023-01-04T12:39:44.119Z,33.75
2023-01-04T12:40:44.226Z,39.38
2023-01-04T12:41:44.081Z,39.38
2023-01-04T12:42:44.126Z,33.75
2023-01-04T12:43:47.058Z,39.38
2023-01-04T12:44:44.058Z,39.38
2023-01-04T12:45:44.176Z,39.38
2023-01-04T12:46:44.082Z,39.38
2023-01-04T12:47:44.098Z,33.75
2023-01-04T12:48:43.952Z,28.12
2023-01-04T12:49:43.943Z,33.75
2023-01-04T12:50:52.229Z,33.75
2023-01-04T12:51:58.293Z,28.12
2023-01-04T12:53:44.961Z,33.75
2023-01-04T12:54:43.866Z,33.75
2023-01-04T12:55:44.348Z,33.75
2023-01-04T12:56:43.928Z,33.75
2023-01-04T12:57:43.829Z,39.38
2023-01-04T12:59:24.651Z,45.00
2023-01-04T12:59:44.867Z,45.00
2023-01-04T13:00:43.813Z,39.38
2023-01-04T13:01:43.924Z,39.38
2023-01-04T13:02:43.894Z,45.00
2023-01-04T13:03:43.772Z,45.00
2023-01-04T13:04:43.784Z,39.38
2023-01-04T13:05:59.066Z,39.38
2023-01-04T13:06:44.748Z,39.38
2023-01-04T13:07:44.143Z,39.38
2023-01-04T13:08:43.908Z,39.38
2023-01-04T13:09:48.232Z,33.75
2023-01-04T13:10:43.782Z,33.75
2023-01-04T13:11:43.712Z,33.75
2023-01-04T13:12:43.870Z,33.75
2023-01-04T13:13:43.782Z,33.75
2023-01-04T13:14:43.650Z,33.75
2023-01-04T13:15:43.592Z,28.12
2023-01-04T13:16:43.624Z,28.12
2023-01-04T13:17:43.570Z,28.12
2023-01-04T13:18:43.564Z,33.75